createdAt,value
2023-03-01T00:02:09.358Z,0.54
2023-03-01T00:07:10.964Z,0.65
2023-03-01T00:12:12.638Z,0.56
2023-03-01T00:17:14.466Z,0.36
2023-03-01T00:22:16.043Z,0.41
2023-03-01T00:27:17.750Z,0.31
2023-03-01T00:32:19.572Z,0.31
2023-03-01T00:37:22.392Z,0.23
2023-03-01T00:42:24.218Z,0.38
2023-03-01T00:47:25.784Z,0.50
2023-03-01T00:52:27.734Z,0.36
2023-03-01T00:57:29.426Z,0.20
2023-03-01T01:02:33.537Z,0.15
2023-03-01T01:07:36.069Z,0.19
2023-03-01T01:12:38.328Z,0.27
2023-03-01T01:17:39.923Z,0.33
2023-03-01T01:22:41.521Z,-0.12
2023-03-01T01:27:43.177Z,-0.13
2023-03-01T01:32:44.741Z,-0.08
2023-03-01T01:37:46.300Z,-0.38
2023-03-01T01:42:47.921Z,-0.01
2023-03-01T01:47:49.625Z,0.01
2023-03-01T01:52:52.038Z,-0.09
2023-03-01T01:58:03.591Z,-0.12
2023-03-01T02:03:14.354Z,-0.06
2023-03-01T02:08:17.842Z,-0.34
2023-03-01T02:13:19.557Z,-0.20
2023-03-01T02:18:22.432Z,-0.19
2023-03-01T02:23:24.141Z,-0.21
2023-03-01T02:28:36.896Z,-0.27
2023-03-01T02:33:39.532Z,-0.25
2023-03-01T02:38:42.354Z,-0.41
2023-03-01T02:43:44.328Z,-0.83
2023-03-01T02:48:50.097Z,-0.66
2023-03-01T02:54:08.038Z,-0.69
2023-03-01T02:59:10.303Z,-0.64
2023-03-01T03:04:18.643Z,-0.97
2023-03-01T03:09:23.046Z,-0.68
2023-03-01T03:14:24.799Z,-0.51
2023-03-01T03:19:26.644Z,-0.54
2023-03-01T03:24:39.211Z,-0.54
2023-03-01T03:29:40.912Z,-0.63
2023-03-01T03:34:42.601Z,-0.78
2023-03-01T03:39:44.144Z,-0.56
2023-03-01T03:44:45.733Z,-0.89
2023-03-01T03:49:47.352Z,-0.73
2023-03-01T03:54:48.922Z,-0.64
2023-03-01T03:59:50.475Z,-0.81
2023-03-01T04:04:52.026Z,-0.75
2023-03-01T04:09:53.574Z,-0.86
2023-03-01T04:14:55.218Z,-0.77
2023-03-01T04:19:56.824Z,-0.90
2023-03-01T04:24:58.428Z,-1.00
2023-03-01T04:30:00.101Z,-0.88
2023-03-01T04:35:01.863Z,-0.97
2023-03-01T04:40:16.644Z,-1.15
2023-03-01T04:45:18.337Z,-1.15
2023-03-01T04:50:24.561Z,-1.17
2023-03-01T04:55:27.620Z,-1.21
2023-03-01T05:00:29.269Z,-1.40
2023-03-01T05:05:37.145Z,-1.54
2023-03-01T05:10:39.736Z,-1.46
2023-03-01T05:15:41.501Z,-1.34
2023-03-01T05:20:43.185Z,-1.19
2023-03-01T05:25:45.010Z,-1.47
2023-03-01T05:30:47.678Z,-1.74
2023-03-01T05:35:50.952Z,-1.53
2023-03-01T05:40:52.589Z,-1.25
2023-03-01T05:45:54.232Z,-1.39
2023-03-01T05:50:55.898Z,-1.47
2023-03-01T05:55:57.532Z,-1.47
2023-03-01T06:00:59.185Z,-1.50
2023-03-01T06:06:00.821Z,-1.63
2023-03-01T06:11:02.401Z,-1.26
2023-03-01T06:16:07.762Z,-1.38
2023-03-01T06:21:10.060Z,-1.39
2023-03-01T06:26:11.739Z,-1.39
2023-03-01T06:31:13.359Z,-1.30
2023-03-01T06:36:19.656Z,-1.15
2023-03-01T06:41:21.690Z,-1.45
2023-03-01T06:46:23.417Z,-1.11
2023-03-01T06:51:25.095Z,-1.04
2023-03-01T06:56:26.642Z,-1.05
2023-03-01T07:01:28.393Z,-0.98
2023-03-01T07:06:30.275Z,-1.10
2023-03-01T07:11:32.003Z,-0.81
2023-03-01T07:16:34.013Z,-0.87
2023-03-01T07:21:35.797Z,-0.96
2023-03-01T07:26:37.882Z,-0.52
2023-03-01T07:31:39.446Z,-0.46
2023-03-01T07:36:43.967Z,-0.19
2023-03-01T07:41:45.631Z,-0.15
2023-03-01T07:46:47.262Z,-0.18
2023-03-01T07:51:49.229Z,-0.15
2023-03-01T07:56:50.824Z,-0.08
2023-03-01T08:01:52.452Z,-0.08
2023-03-01T08:06:55.257Z,0.07
2023-03-01T08:11:57.934Z,0.26
2023-03-01T08:16:59.704Z,0.07
2023-03-01T08:22:03.036Z,0.26
2023-03-01T08:27:04.808Z,0.06
2023-03-01T08:32:06.545Z,0.07
2023-03-01T08:37:08.224Z,0.29
2023-03-01T08:42:09.873Z,0.23
2023-03-01T08:47:11.458Z,0.15
2023-03-01T08:52:13.132Z,0.26
2023-03-01T08:57:14.803Z,0.18
2023-03-01T09:02:18.900Z,0.25
2023-03-01T09:07:20.511Z,0.56
2023-03-01T09:12:22.413Z,0.45
2023-03-01T09:17:24.064Z,0.64
2023-03-01T09:22:25.711Z,0.81
2023-03-01T09:27:27.291Z,0.75
2023-03-01T09:32:31.812Z,0.80
2023-03-01T09:37:35.236Z,0.72
2023-03-01T09:42:37.228Z,1.02
2023-03-01T09:47:38.862Z,1.05
2023-03-01T09:52:59.754Z,1.03
2023-03-01T09:58:27.172Z,1.33
2023-03-01T10:03:40.701Z,1.42
2023-03-01T10:08:47.984Z,1.47
2023-03-01T10:14:11.153Z,1.51
2023-03-01T10:19:16.908Z,1.65
2023-03-01T10:24:22.392Z,1.72
2023-03-01T10:29:35.741Z,1.81
2023-03-01T10:34:37.915Z,1.93
2023-03-01T10:39:59.061Z,1.98
2023-03-01T10:45:18.619Z,2.22
2023-03-01T10:50:24.347Z,2.34
2023-03-01T10:55:37.399Z,2.40
2023-03-01T11:00:49.501Z,2.54
2023-03-01T11:05:56.368Z,2.71
2023-03-01T11:11:13.829Z,2.76
2023-03-01T11:16:15.437Z,2.97
2023-03-01T11:21:17.345Z,2.89
2023-03-01T11:26:19.649Z,2.97
2023-03-01T11:31:22.900Z,3.08
2023-03-01T11:36:39.816Z,3.32
2023-03-01T11:41:42.445Z,3.43
2023-03-01T11:46:54.228Z,3.57
2023-03-01T11:52:04.737Z,3.67
2023-03-01T11:57:49.457Z,3.65
2023-03-01T12:03:20.092Z,3.93
2023-03-01T12:08:34.895Z,3.86
2023-03-01T12:13:55.296Z,4.06
2023-03-01T12:19:15.127Z,4.11
2023-03-01T12:24:22.820Z,4.13
2023-03-01T12:29:35.887Z,4.08
2023-03-01T12:35:02.680Z,4.13
2023-03-01T12:40:25.407Z,4.14
2023-03-01T12:45:49.126Z,4.09
2023-03-01T12:50:54.294Z,4.25
2023-03-01T12:55:59.602Z,4.33
2023-03-01T13:01:04.560Z,4.35
2023-03-01T13:06:18.907Z,4.29
2023-03-01T13:11:22.650Z,4.39
2023-03-01T13:16:30.801Z,4.40
2023-03-01T13:21:32.845Z,4.33
2023-03-01T13:27:14.656Z,4.36
2023-03-01T13:32:43.123Z,4.49
2023-03-01T13:37:45.993Z,4.54
2023-03-01T13:43:04.259Z,4.52
2023-03-01T13:48:27.205Z,4.68
2023-03-01T13:53:32.380Z,4.63
2023-03-01T13:58:49.258Z,4.60
2023-03-01T14:03:51.020Z,4.67
2023-03-01T14:09:03.090Z,4.64
2023-03-01T14:14:13.360Z,4.69
2023-03-01T14:19:32.597Z,4.81
2023-03-01T14:24:36.518Z,4.84
2023-03-01T14:29:39.442Z,4.88
2023-03-01T14:34:46.480Z,4.89
2023-03-01T14:39:48.792Z,4.87
2023-03-01T14:44:52.286Z,5.04
2023-03-01T14:50:08.577Z,4.95
2023-03-01T14:55:22.113Z,4.97
2023-03-01T15:00:29.356Z,4.97
2023-03-01T15:05:32.715Z,4.93
2023-03-01T15:10:36.987Z,5.03
2023-03-01T15:15:47.506Z,5.06
2023-03-01T15:20:50.315Z,5.05
2023-03-01T15:26:00.245Z,5.09
2023-03-01T15:31:19.036Z,5.03
2023-03-01T15:36:39.231Z,5.08
2023-03-01T15:41:49.176Z,5.13
2023-03-01T15:46:50.779Z,5.03
2023-03-01T15:51:55.753Z,5.07
2023-03-01T15:56:57.380Z,4.97
2023-03-01T16:01:59.038Z,4.99
2023-03-01T16:07:00.651Z,4.91
2023-03-01T16:12:02.686Z,5.01
2023-03-01T16:17:04.263Z,5.02
2023-03-01T16:22:06.136Z,5.02
2023-03-01T16:27:07.988Z,4.78
2023-03-01T16:32:09.686Z,4.85
2023-03-01T16:37:11.592Z,4.82
2023-03-01T16:42:13.204Z,4.89
2023-03-01T16:47:14.819Z,4.98
2023-03-01T16:52:16.373Z,4.93
2023-03-01T16:57:17.938Z,4.85
2023-03-01T17:02:20.761Z,4.99
2023-03-01T17:07:23.032Z,4.93
2023-03-01T17:12:24.603Z,4.82
2023-03-01T17:17:27.438Z,4.68
2023-03-01T17:22:29.122Z,4.71
2023-03-01T17:27:35.434Z,4.46
2023-03-01T17:32:37.240Z,4.44
2023-03-01T17:37:39.925Z,4.64
2023-03-01T17:42:41.547Z,4.55
2023-03-01T17:47:43.105Z,4.30
2023-03-01T17:52:44.716Z,4.32
2023-03-01T17:57:46.272Z,4.15
2023-03-01T18:02:47.918Z,4.00
2023-03-01T18:07:51.121Z,4.07
2023-03-01T18:12:52.691Z,4.13
2023-03-01T18:17:54.687Z,3.93
2023-03-01T18:22:56.369Z,3.89
2023-03-01T18:27:58.023Z,3.83
2023-03-01T18:32:59.579Z,3.83
2023-03-01T18:38:01.147Z,3.70
2023-03-01T18:43:02.717Z,3.59
2023-03-01T18:48:04.543Z,3.56
2023-03-01T18:53:06.220Z,3.44
2023-03-01T18:58:07.853Z,3.27
2023-03-01T19:03:11.193Z,3.17
2023-03-01T19:08:12.777Z,2.98
2023-03-01T19:13:14.351Z,3.15
2023-03-01T19:18:15.906Z,3.10
2023-03-01T19:23:17.525Z,3.15
2023-03-01T19:28:19.165Z,3.17
2023-03-01T19:33:20.699Z,3.14
2023-03-01T19:38:23.561Z,2.75
2023-03-01T19:43:25.266Z,2.99
2023-03-01T19:48:27.372Z,2.96
2023-03-01T19:53:29.018Z,2.84
2023-03-01T19:58:31.540Z,2.86
2023-03-01T20:03:36.631Z,2.75
2023-03-01T20:08:38.410Z,2.59
2023-03-01T20:13:40.031Z,2.43
2023-03-01T20:18:41.700Z,2.45
2023-03-01T20:23:43.354Z,2.42
2023-03-01T20:28:46.110Z,2.42
2023-03-01T20:33:48.380Z,2.47
2023-03-01T20:38:52.771Z,2.24
2023-03-01T20:43:56.427Z,2.43
2023-03-01T20:48:58.281Z,2.42
2023-03-01T20:54:00.079Z,2.40
2023-03-01T20:59:04.399Z,2.40
2023-03-01T21:04:06.336Z,2.47
2023-03-01T21:09:08.005Z,2.32
2023-03-01T21:14:12.386Z,2.14
2023-03-01T21:19:14.115Z,1.95
2023-03-01T21:24:15.792Z,1.76
2023-03-01T21:29:17.378Z,1.67
2023-03-01T21:34:18.929Z,2.03
2023-03-01T21:39:21.523Z,2.12
2023-03-01T21:44:24.447Z,1.97
2023-03-01T21:49:26.860Z,1.91
2023-03-01T21:54:28.538Z,1.82
2023-03-01T21:59:30.524Z,1.89
2023-03-01T22:04:32.113Z,1.74
2023-03-01T22:09:36.126Z,1.74
2023-03-01T22:14:37.758Z,1.47
2023-03-01T22:19:39.380Z,1.48
2023-03-01T22:24:40.914Z,1.76
2023-03-01T22:29:42.468Z,1.31
2023-03-01T22:34:44.060Z,1.57
2023-03-01T22:39:45.610Z,1.63
2023-03-01T22:44:47.192Z,1.55
2023-03-01T22:56:49.521Z,1.66
2023-03-01T23:01:52.608Z,1.57
2023-03-01T23:06:54.489Z,1.52
2023-03-01T23:11:56.976Z,1.35
2023-03-01T23:17:01.435Z,1.28
2023-03-01T23:22:03.089Z,1.63
2023-03-01T23:27:05.301Z,1.58
2023-03-01T23:32:07.039Z,1.53
2023-03-01T23:37:10.304Z,1.39
2023-03-01T23:42:11.901Z,1.41
2023-03-01T23:47:13.591Z,1.39
2023-03-01T23:52:17.242Z,1.35
2023-03-01T23:57:19.798Z,1.14
